Flight Track Log - Related Links

Times and Time Zones

All times are in EDT time to prevent confusion due to time zone crossing. See the FLG3360 flight status page for this flight to view local times or setup timezone preferences in your user account.

Time Position Orientation Groundspeed Altitude Reporting Facility
EDT Latitude Longitude Course Direction KTS MPH feet Rate Location/Type
Tue 09:13:23 AM 42.2214 -83.3581 359° North 146 168 1,300  Level Cleveland Center
Tue 09:14:30 AM 42.2736 -83.3597 359° North 207 238 4,100 2,147 Climbing Cleveland Center
Tue 09:15:12 AM 42.3094 -83.3647 354° North 220 253 5,200 2,066 Climbing Cleveland Center
Tue 09:15:31 AM 42.3350 -83.3797 337° Northwest 259 298 6,200 2,613 Climbing Cleveland Center
Tue 09:16:14 AM 42.3472 -83.4333 287° West 259 298 7,900 2,955 Climbing Cleveland Center
Tue 09:16:38 AM 42.3453 -83.4886 267° West 270 311 9,500 2,000 Climbing Cleveland Center
Tue 09:17:17 AM 42.3400 -83.5353 261° West 271 312 10,000 492 Climbing Cleveland Center
Tue 09:17:39 AM 42.3325 -83.5969 261° West 319 367 10,000  Level Cleveland Center
Tue 09:18:18 AM 42.3256 -83.6614 262° West 319 367 10,000  Level Cleveland Center
Tue 09:18:40 AM 42.3181 -83.7247 261° West 337 388 10,000  Level Cleveland Center
Tue 09:19:20 AM 42.3117 -83.7847 262° West 334 384 10,000  Level Cleveland Center
Tue 09:20:22 AM 42.2944 -83.9292 261° West 330 380 10,000  Level Cleveland Center
Tue 09:21:24 AM 42.2906 -84.0539 268° West 330 380 10,000  Level Cleveland Center
Tue 09:22:27 AM 42.2867 -84.1769 268° West 330 380 10,000  Level Cleveland Center
Tue 09:23:29 AM 42.2828 -84.3000 268° West 330 380 10,000  Level Cleveland Center
Tue 09:24:31 AM 42.2783 -84.4219 267° West 329 379 10,000  Level Cleveland Center
Tue 09:25:33 AM 42.2736 -84.5461 267° West 330 380 10,000 54 Level Cleveland Center
Tue 09:26:23 AM 42.2697 -84.6614 267° West 330 380 10,100 54 Climbing Chicago Center
Tue 09:27:25 AM 42.2656 -84.7831 267° West 330 380 10,100  Level Chicago Center
Tue 09:28:27 AM 42.2544 -84.9056 263° West 329 379 10,100  Level Chicago Center
Tue 09:29:29 AM 42.2297 -85.0228 254° West 328 377 10,100 -380 Level Chicago Center
Tue 09:29:46 AM 42.2217 -85.0617 254° West 277 319 9,600 -1,742 Descending Chicago Center
Tue 09:30:31 AM 42.2086 -85.1278 255° West 271 312 8,300 -1,770 Descending Chicago Center
Tue 09:30:47 AM 42.2036 -85.1558 256° West 248 285 7,800 -1,645 Descending Chicago Center
Tue 09:31:33 AM 42.1900 -85.2211 254° West 261 300 6,600 -1,800 Descending Chicago Center
Tue 09:31:47 AM 42.1836 -85.2528 255° West 261 300 6,000 -1,452 Descending Chicago Center
Tue 09:32:35 AM 42.1708 -85.3172 255° West 262 302 5,100 -569 Descending Chicago Center
Tue 09:33:43 AM 42.1481 -85.4189 253° West 224 258 4,900 -844 Descending Chicago Center
Tue 09:34:43 AM 42.1414 -85.4883 263° West 167 192 3,300 -1,311 Descending Chicago Center
Tue 09:35:42 AM 42.1611 -85.5333 301° West 172 198 2,300 -893 Descending Chicago Center
Tue 09:36:44 AM 42.1944 -85.5436 347° North 138 159 1,500 -484 Descending Chicago Center
Tue 09:37:46 AM 42.2256 -85.5511 350° North 131 151 1,300 -194 Descending Chicago Center
Tue 09:39:00 AM 42.2333 -85.5500 270° West  Level FlightAware Approximate

Login

Don't have an account? Register now (free) for customized features, flight alerts, and more!